createdAt,value
2023-05-21T00:00:21.294Z,18.94
2023-05-21T00:05:24.204Z,19.08
2023-05-21T00:10:26.888Z,19.36
2023-05-21T00:15:29.112Z,19.73
2023-05-21T00:20:32.519Z,19.74
2023-05-21T00:25:35.134Z,18.93
2023-05-21T00:30:37.593Z,18.84
2023-05-21T00:35:40.272Z,18.54
2023-05-21T00:40:42.764Z,19.06
2023-05-21T00:45:46.891Z,18.85
2023-05-21T00:50:49.738Z,18.29
2023-05-21T00:55:51.998Z,18.06
2023-05-21T01:00:58.248Z,18.76
2023-05-21T01:06:00.482Z,19.20
2023-05-21T01:11:06.279Z,19.25
2023-05-21T01:16:11.164Z,19.33
2023-05-21T01:21:17.531Z,19.07
2023-05-21T01:26:19.752Z,18.64
2023-05-21T01:31:50.446Z,18.61
2023-05-21T01:37:14.884Z,18.60
2023-05-21T01:42:23.069Z,17.93
2023-05-21T01:47:29.984Z,18.02
2023-05-21T01:52:32.150Z,17.78
2023-05-21T01:57:34.274Z,17.83
2023-05-21T02:02:36.799Z,18.01
2023-05-21T02:07:40.517Z,18.36
2023-05-21T02:12:43.493Z,18.37
2023-05-21T02:17:52.903Z,18.12
2023-05-21T02:22:55.181Z,17.95
2023-05-21T02:27:57.336Z,18.03
2023-05-21T02:32:59.493Z,18.07
2023-05-21T02:38:03.235Z,18.11
2023-05-21T02:43:06.350Z,17.76
2023-05-21T02:48:09.443Z,17.89
2023-05-21T02:53:16.663Z,18.17
2023-05-21T02:58:18.977Z,17.79
2023-05-21T03:03:21.297Z,17.82
2023-05-21T03:08:24.930Z,18.14
2023-05-21T03:13:27.558Z,17.66
2023-05-21T03:18:29.777Z,17.43
2023-05-21T03:23:32.197Z,17.27
2023-05-21T03:28:35.745Z,17.17
2023-05-21T03:33:38.054Z,17.37
2023-05-21T03:38:53.280Z,17.40
2023-05-21T03:43:56.109Z,17.70
2023-05-21T03:49:02.783Z,17.91
2023-05-21T03:54:07.427Z,18.04
2023-05-21T03:59:12.189Z,18.07
2023-05-21T04:04:15.016Z,18.02
2023-05-21T04:09:17.437Z,17.71
2023-05-21T04:14:19.643Z,17.88
2023-05-21T04:19:22.082Z,17.99
2023-05-21T04:24:26.030Z,17.99
2023-05-21T04:29:54.937Z,17.75
2023-05-21T04:35:01.254Z,17.30
2023-05-21T04:40:04.121Z,17.48
2023-05-21T04:45:07.419Z,17.91
2023-05-21T04:50:12.857Z,18.31
2023-05-21T04:55:15.184Z,18.18
2023-05-21T05:00:17.757Z,18.20
2023-05-21T05:05:21.198Z,17.65
2023-05-21T05:10:23.487Z,17.60
2023-05-21T05:15:27.590Z,18.22
2023-05-21T05:20:29.844Z,18.35
2023-05-21T05:25:31.977Z,18.71
2023-05-21T05:30:35.763Z,18.73
2023-05-21T05:35:49.630Z,18.24
2023-05-21T05:40:52.339Z,18.34
2023-05-21T05:45:54.588Z,18.35
2023-05-21T05:50:57.328Z,18.36
2023-05-21T05:56:01.392Z,18.57
2023-05-21T06:01:06.266Z,18.74
2023-05-21T06:06:08.771Z,19.15
2023-05-21T06:11:11.689Z,19.39
2023-05-21T06:16:14.264Z,19.50
2023-05-21T06:21:17.022Z,19.57
2023-05-21T06:26:20.588Z,19.68
2023-05-21T06:31:24.827Z,19.53
2023-05-21T06:36:30.221Z,19.50
2023-05-21T06:41:33.189Z,19.87
2023-05-21T06:46:39.221Z,20.02
2023-05-21T06:51:43.894Z,20.23
2023-05-21T06:56:48.028Z,20.30
2023-05-21T07:01:51.069Z,20.52
2023-05-21T07:06:53.750Z,20.68
2023-05-21T07:11:56.111Z,20.78
2023-05-21T07:16:58.640Z,20.99
2023-05-21T07:22:00.938Z,21.42
2023-05-21T07:27:11.285Z,21.28
2023-05-21T07:32:20.658Z,21.67
2023-05-21T07:37:23.760Z,22.18
2023-05-21T07:42:27.064Z,22.39
2023-05-21T07:47:31.624Z,22.58
2023-05-21T07:52:35.010Z,23.00
2023-05-21T07:57:37.555Z,23.34
2023-05-21T08:02:44.412Z,23.51
2023-05-21T08:07:49.149Z,24.27
2023-05-21T08:12:51.418Z,24.42
2023-05-21T08:17:54.781Z,24.69
2023-05-21T08:22:57.504Z,24.95
2023-05-21T08:27:59.921Z,25.61
2023-05-21T08:33:03.377Z,25.88
2023-05-21T08:38:08.657Z,25.89
2023-05-21T08:43:21.204Z,26.17
2023-05-21T08:48:24.790Z,26.67
2023-05-21T08:53:30.215Z,27.01
2023-05-21T08:58:34.476Z,27.46
2023-05-21T09:03:40.986Z,27.88
2023-05-21T09:08:49.863Z,27.78
2023-05-21T09:14:00.854Z,27.18
2023-05-21T09:19:20.312Z,27.28
2023-05-21T09:24:25.668Z,27.21
2023-05-21T09:29:29.966Z,26.56
2023-05-21T09:34:32.181Z,26.69
2023-05-21T09:39:36.381Z,26.34
2023-05-21T09:44:43.444Z,26.69
2023-05-21T09:49:46.430Z,26.68
2023-05-21T09:54:48.547Z,27.16
2023-05-21T09:59:51.352Z,27.63
2023-05-21T10:04:57.298Z,27.52
2023-05-21T10:10:01.371Z,27.38
2023-05-21T10:15:13.945Z,27.38
2023-05-21T10:20:17.756Z,27.00
2023-05-21T10:25:22.782Z,26.78
2023-05-21T10:30:25.875Z,26.53
2023-05-21T10:35:29.081Z,26.34
2023-05-21T10:40:31.660Z,26.19
2023-05-21T10:46:13.814Z,25.85
2023-05-21T10:51:25.867Z,25.89
2023-05-21T10:56:45.164Z,25.88
2023-05-21T11:01:55.477Z,26.01
2023-05-21T11:06:59.469Z,26.23
2023-05-21T11:12:03.247Z,26.51
2023-05-21T11:17:17.050Z,26.56
2023-05-21T11:22:28.148Z,26.90
2023-05-21T11:27:42.934Z,27.23
2023-05-21T11:33:23.940Z,27.00
2023-05-21T11:38:31.837Z,26.62
2023-05-21T11:43:34.134Z,27.11
2023-05-21T11:48:39.090Z,27.01
2023-05-21T11:53:44.317Z,26.54
2023-05-21T11:58:47.162Z,26.26
2023-05-21T12:03:49.393Z,26.19
2023-05-21T12:08:58.558Z,26.12
2023-05-21T12:14:01.386Z,25.90
2023-05-21T12:19:04.293Z,25.77
2023-05-21T12:24:06.925Z,25.90
2023-05-21T12:29:09.330Z,25.91
2023-05-21T12:34:11.535Z,26.03
2023-05-21T12:39:15.347Z,25.84
2023-05-21T12:44:17.685Z,25.78
2023-05-21T12:49:37.760Z,25.99
2023-05-21T12:54:44.121Z,25.73
2023-05-21T12:59:59.172Z,25.31
2023-05-21T13:05:06.826Z,25.50
2023-05-21T13:10:09.903Z,25.62
2023-05-21T13:15:12.633Z,25.38
2023-05-21T13:20:17.089Z,25.26
2023-05-21T13:25:25.249Z,25.53
2023-05-21T13:30:27.547Z,25.81
2023-05-21T13:35:34.719Z,26.18
2023-05-21T13:40:39.055Z,26.21
2023-05-21T13:45:41.473Z,26.26
2023-05-21T13:50:43.882Z,26.57
2023-05-21T13:55:46.382Z,27.07
2023-05-21T14:00:48.589Z,27.06
2023-05-21T14:05:53.804Z,27.36
2023-05-21T14:10:56.448Z,27.50
2023-05-21T14:15:58.771Z,27.37
2023-05-21T14:21:01.141Z,27.70
2023-05-21T14:26:03.467Z,26.99
2023-05-21T14:31:06.990Z,26.59
2023-05-21T14:36:09.237Z,26.77
2023-05-21T14:41:11.586Z,27.06
2023-05-21T14:46:14.335Z,27.01
2023-05-21T14:51:16.774Z,27.50
2023-05-21T14:56:21.832Z,27.07
2023-05-21T15:01:24.391Z,26.83
2023-05-21T15:06:26.635Z,26.11
2023-05-21T15:11:28.844Z,25.96
2023-05-21T15:16:31.495Z,25.59
2023-05-21T15:21:33.735Z,25.73
2023-05-21T15:26:35.939Z,25.92
2023-05-21T15:31:39.692Z,25.99
2023-05-21T15:36:41.868Z,26.13
2023-05-21T15:41:44.628Z,26.28
2023-05-21T15:46:50.022Z,26.35
2023-05-21T15:51:52.242Z,26.30
2023-05-21T15:56:54.471Z,26.35
2023-05-21T16:01:56.886Z,26.41
2023-05-21T16:06:59.134Z,26.18
2023-05-21T16:12:01.662Z,26.06
2023-05-21T16:17:03.901Z,25.78
2023-05-21T16:22:07.123Z,25.72
2023-05-21T16:27:10.360Z,25.98
2023-05-21T16:32:14.303Z,25.95
2023-05-21T16:37:16.887Z,25.52
2023-05-21T16:42:19.372Z,25.19
2023-05-21T16:47:21.819Z,25.02
2023-05-21T16:52:24.505Z,24.96
2023-05-21T16:57:26.603Z,24.98
2023-05-21T17:02:28.842Z,24.92
2023-05-21T17:07:31.771Z,24.76
2023-05-21T17:12:33.989Z,24.47
2023-05-21T17:17:36.317Z,24.34
2023-05-21T17:22:38.578Z,24.21
2023-05-21T17:27:40.829Z,24.11
2023-05-21T17:32:43.302Z,24.11
2023-05-21T17:37:46.088Z,24.07
2023-05-21T17:42:48.758Z,24.17
2023-05-21T17:47:51.031Z,24.11
2023-05-21T17:52:53.334Z,23.99
2023-05-21T17:57:55.679Z,23.92
2023-05-21T18:02:58.854Z,23.82
2023-05-21T18:08:04.910Z,23.77
2023-05-21T18:13:07.270Z,23.69
2023-05-21T18:18:09.566Z,23.57
2023-05-21T18:23:12.409Z,23.35
2023-05-21T18:28:14.675Z,23.30
2023-05-21T18:33:17.270Z,23.19
2023-05-21T18:38:19.480Z,23.09
2023-05-21T18:43:21.672Z,22.98
2023-05-21T18:48:23.848Z,22.96
2023-05-21T18:53:26.026Z,22.95
2023-05-21T18:58:29.457Z,22.94
2023-05-21T19:03:32.309Z,22.91
2023-05-21T19:08:34.665Z,22.88
2023-05-21T19:13:36.801Z,22.83
2023-05-21T19:18:43.360Z,22.79
2023-05-21T19:23:53.400Z,22.75
2023-05-21T19:28:56.715Z,22.57
2023-05-21T19:33:58.956Z,22.32
2023-05-21T19:39:01.219Z,22.33
2023-05-21T19:44:03.508Z,22.11
2023-05-21T19:49:06.045Z,21.85
2023-05-21T19:54:08.192Z,21.83
2023-05-21T19:59:11.707Z,21.71
2023-05-21T20:04:14.462Z,21.58
2023-05-21T20:09:18.264Z,21.41
2023-05-21T20:14:20.531Z,21.42
2023-05-21T20:19:22.882Z,21.44
2023-05-21T20:24:25.130Z,21.34
2023-05-21T20:29:27.337Z,21.35
2023-05-21T20:34:29.912Z,21.14
2023-05-21T20:39:32.624Z,21.08
2023-05-21T20:44:34.830Z,20.79
2023-05-21T20:49:38.569Z,20.62
2023-05-21T20:54:40.755Z,20.65
2023-05-21T20:59:43.555Z,20.52
2023-05-21T21:04:50.020Z,20.53
2023-05-21T21:09:52.408Z,20.49
2023-05-21T21:14:55.559Z,20.27
2023-05-21T21:19:57.712Z,20.33
2023-05-21T21:25:00.226Z,20.37
2023-05-21T21:30:03.151Z,20.14
2023-05-21T21:35:06.198Z,20.11
2023-05-21T21:40:09.435Z,20.36
2023-05-21T21:45:11.976Z,20.56
2023-05-21T21:50:14.405Z,21.11
2023-05-21T21:55:16.746Z,20.86
2023-05-21T22:00:19.419Z,20.35
2023-05-21T22:05:21.738Z,20.34
2023-05-21T22:10:23.900Z,20.81
2023-05-21T22:15:28.852Z,21.03
2023-05-21T22:20:31.236Z,20.98
2023-05-21T22:25:33.384Z,20.13
2023-05-21T22:30:37.927Z,19.79
2023-05-21T22:35:40.251Z,19.83
2023-05-21T22:40:42.392Z,20.35
2023-05-21T22:45:44.911Z,20.55
2023-05-21T22:50:47.393Z,20.30
2023-05-21T22:55:52.499Z,19.69
2023-05-21T23:00:54.657Z,19.79
2023-05-21T23:05:56.816Z,20.10
2023-05-21T23:10:59.028Z,20.19
2023-05-21T23:16:01.424Z,20.29
2023-05-21T23:21:03.805Z,20.04
2023-05-21T23:26:06.065Z,19.87
2023-05-21T23:31:08.296Z,19.80
2023-05-21T23:36:10.537Z,19.77
2023-05-21T23:41:13.978Z,19.98
2023-05-21T23:46:16.472Z,20.12
2023-05-21T23:51:19.469Z,20.36
2023-05-21T23:56:21.613Z,20.31
